createdAt,value
2022-10-23T00:00:41.800Z,18.60
2022-10-23T00:03:45.508Z,15.85
2022-10-23T00:06:49.164Z,17.17
2022-10-23T00:09:52.524Z,15.17
2022-10-23T00:12:55.732Z,17.98
2022-10-23T00:15:58.604Z,16.87
2022-10-23T00:19:04.207Z,16.52
2022-10-23T00:22:08.862Z,15.87
2022-10-23T00:25:11.680Z,16.20
2022-10-23T00:28:14.796Z,15.85
2022-10-23T00:31:18.227Z,17.17
2022-10-23T00:34:21.218Z,16.05
2022-10-23T00:37:23.831Z,16.73
2022-10-23T00:40:26.749Z,15.73
2022-10-23T00:43:31.036Z,14.87
2022-10-23T00:46:34.307Z,16.12
2022-10-23T00:49:39.501Z,14.75
2022-10-23T00:52:49.380Z,15.93
2022-10-23T00:55:55.022Z,14.93
2022-10-23T00:58:58.300Z,16.40
2022-10-23T01:02:02.306Z,17.15
2022-10-23T01:05:05.606Z,16.67
2022-10-23T01:08:32.221Z,16.30
2022-10-23T01:12:07.844Z,16.17
2022-10-23T01:15:28.824Z,15.77
2022-10-23T01:18:44.964Z,15.60
2022-10-23T01:22:12.109Z,16.15
2022-10-23T01:25:34.714Z,14.93
2022-10-23T01:28:59.765Z,14.33
2022-10-23T01:32:14.217Z,13.57
2022-10-23T01:35:43.332Z,13.52
2022-10-23T01:38:53.558Z,14.00
2022-10-23T01:42:07.111Z,13.70
2022-10-23T01:45:16.384Z,13.00
2022-10-23T01:48:25.177Z,13.35
2022-10-23T01:51:30.566Z,13.82
2022-10-23T01:54:41.595Z,13.85
2022-10-23T01:57:46.138Z,14.73
2022-10-23T02:00:52.098Z,12.83
2022-10-23T02:07:00.060Z,13.13
2022-10-23T02:10:09.476Z,16.48
2022-10-23T02:13:36.529Z,14.57
2022-10-23T02:16:50.564Z,13.07
2022-10-23T02:20:05.474Z,12.55
2022-10-23T02:23:26.118Z,13.15
2022-10-23T02:26:39.489Z,12.80
2022-10-23T02:29:53.899Z,12.00
2022-10-23T02:32:57.705Z,13.00
2022-10-23T02:36:00.709Z,13.38
2022-10-23T02:39:05.861Z,13.40
2022-10-23T02:42:22.442Z,12.80
2022-10-23T02:45:35.200Z,29.17
2022-10-23T02:48:52.603Z,16.83
2022-10-23T02:52:11.093Z,14.43
2022-10-23T02:55:22.555Z,13.02
2022-10-23T02:58:59.521Z,13.38
2022-10-23T03:02:08.645Z,17.60
2022-10-23T03:05:18.169Z,21.03
2022-10-23T03:08:21.071Z,20.90
2022-10-23T03:11:24.013Z,49.13
2022-10-23T03:14:26.917Z,43.80
2022-10-23T03:17:29.607Z,25.10
2022-10-23T03:20:33.231Z,25.70
2022-10-23T03:23:37.094Z,22.33
2022-10-23T03:26:40.270Z,13.20
2022-10-23T03:29:43.699Z,14.20
2022-10-23T03:32:46.610Z,14.90
2022-10-23T03:35:50.077Z,14.53
2022-10-23T03:38:53.029Z,15.27
2022-10-23T03:41:56.245Z,14.18
2022-10-23T03:44:59.154Z,14.02
2022-10-23T03:48:01.829Z,13.73
2022-10-23T03:51:07.226Z,13.53
2022-10-23T03:54:10.191Z,13.55
2022-10-23T03:57:13.288Z,12.30
2022-10-23T04:00:17.237Z,11.00
2022-10-23T04:03:24.461Z,12.33
2022-10-23T04:06:27.411Z,12.23
2022-10-23T04:09:30.676Z,12.40
2022-10-23T04:12:34.892Z,12.45
2022-10-23T04:15:37.754Z,16.05
2022-10-23T04:18:41.913Z,14.47
2022-10-23T04:21:45.408Z,13.67
2022-10-23T04:24:48.261Z,17.08
2022-10-23T04:27:53.030Z,14.90
2022-10-23T04:30:55.746Z,14.90
2022-10-23T04:33:58.805Z,13.93
2022-10-23T04:37:01.695Z,13.80
2022-10-23T04:40:05.516Z,15.93
2022-10-23T04:43:10.779Z,17.95
2022-10-23T04:46:13.722Z,18.12
2022-10-23T04:49:16.400Z,28.07
2022-10-23T04:52:20.709Z,20.73
2022-10-23T04:55:25.552Z,19.67
2022-10-23T04:58:29.959Z,12.90
2022-10-23T05:01:33.004Z,12.10
2022-10-23T05:04:36.745Z,13.40
2022-10-23T05:07:43.620Z,13.50
2022-10-23T05:10:48.763Z,13.15
2022-10-23T05:13:51.488Z,13.15
2022-10-23T05:16:57.534Z,12.80
2022-10-23T05:20:05.486Z,14.73
2022-10-23T05:23:11.829Z,12.17
2022-10-23T05:26:14.756Z,13.02
2022-10-23T05:29:19.221Z,14.48
2022-10-23T05:32:22.643Z,14.77
2022-10-23T05:35:27.720Z,17.07
2022-10-23T05:38:33.860Z,14.90
2022-10-23T05:41:38.405Z,20.80
2022-10-23T05:44:41.375Z,19.42
2022-10-23T05:47:45.975Z,17.70
2022-10-23T05:50:51.603Z,18.43
2022-10-23T05:53:55.486Z,18.20
2022-10-23T05:56:58.612Z,18.08
2022-10-23T06:00:04.446Z,17.30
2022-10-23T06:03:15.837Z,17.12
2022-10-23T06:06:19.309Z,17.20
2022-10-23T06:09:22.078Z,15.90
2022-10-23T06:12:25.616Z,16.25
2022-10-23T06:15:28.533Z,16.12
2022-10-23T06:18:32.945Z,18.45
2022-10-23T06:21:40.618Z,18.67
2022-10-23T06:24:44.252Z,23.23
2022-10-23T06:27:47.120Z,20.70
2022-10-23T06:30:50.566Z,18.95
2022-10-23T06:33:57.068Z,18.98
2022-10-23T06:37:02.728Z,18.00
2022-10-23T06:40:08.055Z,19.67
2022-10-23T06:43:11.100Z,19.48
2022-10-23T06:46:15.316Z,20.73
2022-10-23T06:49:21.307Z,24.17
2022-10-23T06:52:42.107Z,25.80
2022-10-23T06:55:50.013Z,36.03
2022-10-23T06:58:55.901Z,32.58
2022-10-23T07:02:00.264Z,27.02
2022-10-23T07:05:03.473Z,21.12
2022-10-23T07:08:11.203Z,23.30
2022-10-23T07:11:22.378Z,19.20
2022-10-23T07:14:32.830Z,21.52
2022-10-23T07:17:36.757Z,19.65
2022-10-23T07:20:43.823Z,19.73
2022-10-23T07:23:48.364Z,17.50
2022-10-23T07:26:59.460Z,17.53
2022-10-23T07:30:03.779Z,17.27
2022-10-23T07:33:09.050Z,17.80
2022-10-23T07:36:11.944Z,19.48
2022-10-23T07:39:14.967Z,19.17
2022-10-23T07:42:18.192Z,19.37
2022-10-23T07:45:21.692Z,19.25
2022-10-23T07:48:24.942Z,19.75
2022-10-23T07:51:29.381Z,19.95
2022-10-23T07:54:33.820Z,19.23
2022-10-23T07:57:39.601Z,20.50
2022-10-23T08:00:42.622Z,21.73
2022-10-23T08:03:45.905Z,20.52
2022-10-23T08:06:49.507Z,18.73
2022-10-23T08:09:53.237Z,17.80
2022-10-23T08:12:55.935Z,16.97
2022-10-23T08:16:00.663Z,16.00
2022-10-23T08:19:07.220Z,14.07
2022-10-23T08:22:10.506Z,13.52
2022-10-23T08:25:13.719Z,14.90
2022-10-23T08:28:17.310Z,12.47
2022-10-23T08:31:21.466Z,9.45
2022-10-23T08:34:25.502Z,7.50
2022-10-23T08:37:32.785Z,6.22
2022-10-23T08:40:36.409Z,5.33
2022-10-23T08:43:50.973Z,5.50
2022-10-23T08:47:22.757Z,5.40
2022-10-23T08:50:56.544Z,7.30
2022-10-23T08:54:12.841Z,9.23
2022-10-23T08:57:17.510Z,6.80
2022-10-23T09:00:20.704Z,7.00
2022-10-23T09:03:23.579Z,6.05
2022-10-23T09:06:39.617Z,5.95
2022-10-23T09:10:06.311Z,5.32
2022-10-23T09:13:49.171Z,6.03
2022-10-23T09:16:54.533Z,5.10
2022-10-23T09:20:23.917Z,4.97
2022-10-23T09:23:26.496Z,4.62
2022-10-23T09:26:29.601Z,5.28
2022-10-23T09:29:36.182Z,4.87
2022-10-23T09:32:39.340Z,4.23
2022-10-23T09:35:55.125Z,4.20
2022-10-23T09:39:00.474Z,3.42
2022-10-23T09:42:24.932Z,3.42
2022-10-23T09:45:34.145Z,2.60
2022-10-23T09:48:37.389Z,2.23
2022-10-23T09:51:42.240Z,2.70
2022-10-23T09:55:09.457Z,2.20
2022-10-23T09:58:30.019Z,2.22
2022-10-23T10:01:45.609Z,2.50
2022-10-23T10:04:53.690Z,3.20
2022-10-23T10:08:03.848Z,2.87
2022-10-23T10:11:28.455Z,2.00
2022-10-23T10:14:55.897Z,2.30
2022-10-23T10:18:21.867Z,2.07
2022-10-23T10:22:08.948Z,1.83
2022-10-23T10:25:28.669Z,1.75
2022-10-23T10:28:50.118Z,1.70
2022-10-23T10:31:56.058Z,2.30
2022-10-23T10:35:04.361Z,1.93
2022-10-23T10:38:43.006Z,2.60
2022-10-23T10:41:55.790Z,2.40
2022-10-23T10:45:27.465Z,1.85
2022-10-23T10:49:06.116Z,1.85
2022-10-23T10:52:48.323Z,1.83
2022-10-23T10:55:55.666Z,2.10
2022-10-23T10:59:03.953Z,1.80
2022-10-23T11:02:41.741Z,1.60
2022-10-23T11:05:51.864Z,1.37
2022-10-23T11:09:15.630Z,1.43
2022-10-23T11:12:23.317Z,1.53
2022-10-23T11:15:29.537Z,2.10
2022-10-23T11:18:34.055Z,1.23
2022-10-23T11:21:58.307Z,1.10
2022-10-23T11:25:21.858Z,1.10
2022-10-23T11:28:43.082Z,1.13
2022-10-23T11:32:06.519Z,1.40
2022-10-23T11:35:37.126Z,1.02
2022-10-23T11:38:42.322Z,1.40
2022-10-23T11:42:15.289Z,1.07
2022-10-23T11:45:41.048Z,1.00
2022-10-23T11:48:44.991Z,0.70
2022-10-23T11:51:47.969Z,0.77
2022-10-23T11:55:05.612Z,1.05
2022-10-23T11:58:16.382Z,1.07
2022-10-23T12:01:43.060Z,1.10
2022-10-23T12:04:49.530Z,1.20
2022-10-23T12:07:58.179Z,0.98
2022-10-23T12:11:01.143Z,0.90
2022-10-23T12:14:03.923Z,0.90
2022-10-23T12:17:38.270Z,0.90
2022-10-23T12:21:01.975Z,1.10
2022-10-23T12:24:39.912Z,1.00
2022-10-23T12:27:53.345Z,0.80
2022-10-23T12:31:33.099Z,0.83
2022-10-23T12:34:47.887Z,1.13
2022-10-23T12:37:56.927Z,1.08
2022-10-23T12:41:14.232Z,1.12
2022-10-23T12:44:19.511Z,1.00
2022-10-23T12:47:22.492Z,1.10
2022-10-23T12:50:28.804Z,1.50
2022-10-23T12:53:34.639Z,1.90
2022-10-23T12:56:39.206Z,1.17
2022-10-23T12:59:42.902Z,1.35
2022-10-23T13:02:46.076Z,1.30
2022-10-23T13:05:51.944Z,1.60
2022-10-23T13:08:56.404Z,1.70
2022-10-23T13:12:02.470Z,1.80
2022-10-23T13:15:08.521Z,1.83
2022-10-23T13:18:14.684Z,1.20
2022-10-23T13:21:23.347Z,2.27
2022-10-23T13:24:29.783Z,1.87
2022-10-23T13:27:34.749Z,2.28
2022-10-23T13:30:43.886Z,1.98
2022-10-23T13:34:11.588Z,1.97
2022-10-23T13:37:24.711Z,1.70
2022-10-23T13:40:28.283Z,1.67
2022-10-23T13:43:32.773Z,1.90
2022-10-23T13:46:35.960Z,2.03
2022-10-23T13:49:38.918Z,2.40
2022-10-23T13:52:42.322Z,1.60
2022-10-23T13:55:50.112Z,2.15
2022-10-23T13:58:54.298Z,3.30
2022-10-23T14:01:57.371Z,3.10
2022-10-23T14:05:00.372Z,3.50
2022-10-23T14:08:02.999Z,2.27
2022-10-23T14:11:06.152Z,2.35
2022-10-23T14:14:09.576Z,1.73
2022-10-23T14:17:12.772Z,1.33
2022-10-23T14:20:17.393Z,2.10
2022-10-23T14:23:22.027Z,2.90
2022-10-23T14:26:27.989Z,2.58
2022-10-23T14:29:31.613Z,3.10
2022-10-23T14:32:34.380Z,1.90
2022-10-23T14:35:43.787Z,2.63
2022-10-23T14:38:51.417Z,4.33
2022-10-23T14:41:56.587Z,3.20
2022-10-23T14:44:59.249Z,7.47
2022-10-23T14:48:03.754Z,5.62
2022-10-23T14:51:25.335Z,4.00
2022-10-23T14:54:29.894Z,7.20
2022-10-23T14:57:32.886Z,4.68
2022-10-23T15:00:35.846Z,5.95
2022-10-23T15:03:38.435Z,6.60
2022-10-23T15:06:42.150Z,6.67
2022-10-23T15:09:44.880Z,6.63
2022-10-23T15:12:48.797Z,7.28
2022-10-23T15:15:52.728Z,7.10
2022-10-23T15:18:57.936Z,13.55
2022-10-23T15:22:00.880Z,9.43
2022-10-23T15:25:04.085Z,10.67
2022-10-23T15:28:06.738Z,10.73
2022-10-23T15:31:45.038Z,9.23
2022-10-23T15:34:50.223Z,10.57
2022-10-23T15:37:53.553Z,9.27
2022-10-23T15:41:13.539Z,8.77
2022-10-23T15:44:18.540Z,9.43
2022-10-23T15:47:21.685Z,10.65
2022-10-23T15:50:24.877Z,11.27
2022-10-23T15:53:27.489Z,10.70
2022-10-23T15:56:30.469Z,11.30
2022-10-23T15:59:34.679Z,11.35
2022-10-23T16:02:37.900Z,11.00
2022-10-23T16:05:40.979Z,10.35
2022-10-23T16:08:46.813Z,11.10
2022-10-23T16:11:49.750Z,12.90
2022-10-23T16:14:52.733Z,16.17
2022-10-23T16:17:55.825Z,13.32
2022-10-23T16:20:58.468Z,15.70
2022-10-23T16:24:13.162Z,9.20
2022-10-23T16:27:15.978Z,9.60
2022-10-23T16:30:19.367Z,10.82
2022-10-23T16:33:22.077Z,10.82
2022-10-23T16:36:25.539Z,11.20
2022-10-23T16:39:31.807Z,11.83
2022-10-23T16:42:48.919Z,12.03
2022-10-23T16:46:06.765Z,12.02
2022-10-23T16:49:11.291Z,10.80
2022-10-23T16:52:15.516Z,8.02
2022-10-23T16:55:18.630Z,9.27
2022-10-23T16:58:21.470Z,7.60
2022-10-23T17:01:30.326Z,8.50
2022-10-23T17:04:36.872Z,7.87
2022-10-23T17:07:42.393Z,7.75
2022-10-23T17:10:45.664Z,8.10
2022-10-23T17:13:55.704Z,8.63
2022-10-23T17:17:02.363Z,8.48
2022-10-23T17:20:06.222Z,6.15
2022-10-23T17:23:10.798Z,8.85
2022-10-23T17:26:17.189Z,11.77
2022-10-23T17:29:22.890Z,9.63
2022-10-23T17:32:27.392Z,9.30
2022-10-23T17:35:30.556Z,8.32
2022-10-23T17:38:36.481Z,7.87
2022-10-23T17:41:40.498Z,7.87
2022-10-23T17:44:45.131Z,7.50
2022-10-23T17:47:48.705Z,8.57
2022-10-23T17:51:02.849Z,7.40
2022-10-23T17:54:12.279Z,6.75
2022-10-23T17:57:50.184Z,6.83
2022-10-23T18:00:53.824Z,6.87
2022-10-23T18:04:00.802Z,6.90
2022-10-23T18:07:04.057Z,5.85
2022-10-23T18:10:07.985Z,6.68
2022-10-23T18:13:11.024Z,6.00
2022-10-23T18:16:15.306Z,6.45
2022-10-23T18:19:19.409Z,6.50
2022-10-23T18:22:22.860Z,6.15
2022-10-23T18:25:25.903Z,5.20
2022-10-23T18:28:29.972Z,5.13
2022-10-23T18:31:34.330Z,4.62
2022-10-23T18:34:41.024Z,5.10
2022-10-23T18:37:44.328Z,5.10
2022-10-23T18:40:54.915Z,4.80
2022-10-23T18:43:57.919Z,4.77
2022-10-23T18:47:01.450Z,4.53
2022-10-23T18:50:05.993Z,4.68
2022-10-23T18:53:09.010Z,4.75
2022-10-23T18:56:13.175Z,5.03
2022-10-23T18:59:20.103Z,4.50
2022-10-23T19:02:23.644Z,4.43
2022-10-23T19:05:27.767Z,4.37
2022-10-23T19:08:33.574Z,4.68
2022-10-23T19:11:38.535Z,5.43
2022-10-23T19:14:41.653Z,4.67
2022-10-23T19:17:46.277Z,4.30
2022-10-23T19:20:49.884Z,4.30
2022-10-23T19:23:53.575Z,4.45
2022-10-23T19:26:57.636Z,4.25
2022-10-23T19:30:04.025Z,4.60
2022-10-23T19:33:07.228Z,3.72
2022-10-23T19:36:14.461Z,4.32
2022-10-23T19:39:19.225Z,4.18
2022-10-23T19:42:23.085Z,5.40
2022-10-23T19:45:26.208Z,4.80
2022-10-23T19:48:30.770Z,4.82
2022-10-23T19:51:33.380Z,4.70
2022-10-23T19:54:38.379Z,3.45
2022-10-23T19:57:42.354Z,4.30
2022-10-23T20:00:46.975Z,4.37
2022-10-23T20:03:50.413Z,4.68
2022-10-23T20:06:53.640Z,4.30
2022-10-23T20:09:56.916Z,4.25
2022-10-23T20:13:18.241Z,4.70
2022-10-23T20:16:42.574Z,4.37
2022-10-23T20:19:45.593Z,5.00
2022-10-23T20:22:53.234Z,5.37
2022-10-23T20:26:08.649Z,5.62
2022-10-23T20:29:12.085Z,6.10
2022-10-23T20:32:15.942Z,5.90
2022-10-23T20:35:19.108Z,5.82
2022-10-23T20:38:23.260Z,6.25
2022-10-23T20:41:28.830Z,6.53
2022-10-23T20:44:31.798Z,5.95
2022-10-23T20:47:35.120Z,6.43
2022-10-23T20:50:38.225Z,5.80
2022-10-23T20:53:42.322Z,5.35
2022-10-23T20:56:45.455Z,5.65
2022-10-23T20:59:48.494Z,6.05
2022-10-23T21:02:52.668Z,5.87
2022-10-23T21:05:55.834Z,5.18
2022-10-23T21:09:00.829Z,5.53
2022-10-23T21:12:04.336Z,6.47
2022-10-23T21:15:07.869Z,11.12
2022-10-23T21:18:26.502Z,21.63
2022-10-23T21:21:38.787Z,25.15
2022-10-23T21:24:41.780Z,30.37
2022-10-23T21:27:45.466Z,28.77
2022-10-23T21:30:50.208Z,31.27
2022-10-23T21:33:54.075Z,26.07
2022-10-23T21:37:13.888Z,25.02
2022-10-23T21:40:17.349Z,25.33
2022-10-23T21:43:20.234Z,23.58
2022-10-23T21:46:24.676Z,23.30
2022-10-23T21:49:27.687Z,21.47
2022-10-23T21:52:30.295Z,19.55
2022-10-23T21:55:33.244Z,20.00
2022-10-23T21:58:37.200Z,19.77
2022-10-23T22:01:43.305Z,18.52
2022-10-23T22:04:46.341Z,10.80
2022-10-23T22:07:48.947Z,10.77
2022-10-23T22:10:51.867Z,12.85
2022-10-23T22:13:55.531Z,8.57
2022-10-23T22:16:58.688Z,9.48
2022-10-23T22:20:02.292Z,9.33
2022-10-23T22:23:05.341Z,9.35
2022-10-23T22:26:18.559Z,9.20
2022-10-23T22:29:24.946Z,8.23
2022-10-23T22:32:27.491Z,8.48
2022-10-23T22:35:30.902Z,8.37
2022-10-23T22:38:33.513Z,9.02
2022-10-23T22:41:36.409Z,8.50
2022-10-23T22:44:38.947Z,8.68
2022-10-23T22:47:41.895Z,8.13
2022-10-23T22:50:47.014Z,8.97
2022-10-23T22:53:49.942Z,8.93
2022-10-23T22:56:52.601Z,8.63
2022-10-23T22:59:55.496Z,8.85
2022-10-23T23:02:59.886Z,8.65
2022-10-23T23:06:06.695Z,8.63
2022-10-23T23:09:09.569Z,9.75
2022-10-23T23:12:14.368Z,10.50
2022-10-23T23:15:17.145Z,9.93
2022-10-23T23:18:19.961Z,10.50
2022-10-23T23:21:22.770Z,10.90
2022-10-23T23:24:26.305Z,11.15
2022-10-23T23:27:28.998Z,11.60
2022-10-23T23:30:31.890Z,12.15
2022-10-23T23:33:35.901Z,13.15
2022-10-23T23:36:38.893Z,14.57
2022-10-23T23:39:41.447Z,14.65
2022-10-23T23:42:45.685Z,14.52
2022-10-23T23:45:48.553Z,14.87
2022-10-23T23:48:51.541Z,15.13
2022-10-23T23:51:54.089Z,16.03
2022-10-23T23:54:57.163Z,14.65
2022-10-23T23:57:59.842Z,15.30
